sensor_id;sensor_type;location;lat;lon;timestamp;pressure;altitude;pressure_sealevel;temperature;humidity
58843;BME280;44614;54.356;10.100;2023-04-06T00:00:31;101820.59;;;1.01;72.88
58843;BME280;44614;54.356;10.100;2023-04-06T00:02:56;101824.56;;;0.96;72.87
58843;BME280;44614;54.356;10.100;2023-04-06T00:05:21;101822.97;;;0.94;73.15
58843;BME280;44614;54.356;10.100;2023-04-06T00:07:48;101823.13;;;0.92;73.38
58843;BME280;44614;54.356;10.100;2023-04-06T00:10:13;101823.25;;;0.91;73.29
58843;BME280;44614;54.356;10.100;2023-04-06T00:12:38;101815.97;;;0.91;72.95
58843;BME280;44614;54.356;10.100;2023-04-06T00:15:04;101822.13;;;0.93;72.68
58843;BME280;44614;54.356;10.100;2023-04-06T00:17:30;101818.84;;;0.90;73.08
58843;BME280;44614;54.356;10.100;2023-04-06T00:19:56;101818.41;;;0.85;72.92
58843;BME280;44614;54.356;10.100;2023-04-06T00:22:21;101820.94;;;0.77;73.24
58843;BME280;44614;54.356;10.100;2023-04-06T00:24:46;101809.63;;;0.71;73.68
58843;BME280;44614;54.356;10.100;2023-04-06T00:27:12;101818.75;;;0.70;73.84
58843;BME280;44614;54.356;10.100;2023-04-06T00:29:39;101816.31;;;0.67;73.84
58843;BME280;44614;54.356;10.100;2023-04-06T00:32:04;101814.47;;;0.68;73.95
58843;BME280;44614;54.356;10.100;2023-04-06T00:34:30;101813.59;;;0.67;73.95
58843;BME280;44614;54.356;10.100;2023-04-06T00:36:56;101805.66;;;0.66;73.75
58843;BME280;44614;54.356;10.100;2023-04-06T00:39:21;101802.09;;;0.65;73.78
58843;BME280;44614;54.356;10.100;2023-04-06T00:41:51;101799.78;;;0.61;73.42
58843;BME280;44614;54.356;10.100;2023-04-06T00:44:18;101805.47;;;0.58;73.87
58843;BME280;44614;54.356;10.100;2023-04-06T00:46:43;101800.44;;;0.53;73.96
58843;BME280;44614;54.356;10.100;2023-04-06T00:49:08;101796.44;;;0.47;74.27
58843;BME280;44614;54.356;10.100;2023-04-06T00:51:34;101795.13;;;0.42;74.88
58843;BME280;44614;54.356;10.100;2023-04-06T00:53:59;101799.81;;;0.40;74.93
58843;BME280;44614;54.356;10.100;2023-04-06T00:56:25;101791.72;;;0.40;75.00
58843;BME280;44614;54.356;10.100;2023-04-06T00:58:51;101752.06;;;0.19;74.95
58843;BME280;44614;54.356;10.100;2023-04-06T01:01:16;101789.16;;;0.38;74.51
58843;BME280;44614;54.356;10.100;2023-04-06T01:03:42;101753.03;;;0.18;75.02
58843;BME280;44614;54.356;10.100;2023-04-06T01:06:09;101768.06;;;0.32;75.03
58843;BME280;44614;54.356;10.100;2023-04-06T01:08:35;101775.44;;;0.30;75.02
58843;BME280;44614;54.356;10.100;2023-04-06T01:11:01;101783.94;;;0.26;75.39
58843;BME280;44614;54.356;10.100;2023-04-06T01:13:26;101781.50;;;0.22;75.58
58843;BME280;44614;54.356;10.100;2023-04-06T01:15:52;101784.19;;;0.22;75.73
58843;BME280;44614;54.356;10.100;2023-04-06T01:18:18;101781.38;;;0.24;75.34
58843;BME280;44614;54.356;10.100;2023-04-06T01:20:43;101777.69;;;0.25;75.37
58843;BME280;44614;54.356;10.100;2023-04-06T01:23:08;101773.53;;;0.21;75.29
58843;BME280;44614;54.356;10.100;2023-04-06T01:25:34;101768.53;;;0.16;74.88
58843;BME280;44614;54.356;10.100;2023-04-06T01:27:59;101766.25;;;0.12;75.38
58843;BME280;44614;54.356;10.100;2023-04-06T01:30:25;101741.94;;;-0.09;75.49
58843;BME280;44614;54.356;10.100;2023-04-06T01:32:50;101775.91;;;0.14;75.38
58843;BME280;44614;54.356;10.100;2023-04-06T01:35:17;101710.00;;;-0.25;75.45
58843;BME280;44614;54.356;10.100;2023-04-06T01:37:43;101761.09;;;0.09;75.27
58843;BME280;44614;54.356;10.100;2023-04-06T01:40:08;101772.00;;;0.07;75.11
58843;BME280;44614;54.356;10.100;2023-04-06T01:42:34;101765.91;;;0.05;75.49
58843;BME280;44614;54.356;10.100;2023-04-06T01:44:59;101772.31;;;0.04;75.57
58843;BME280;44614;54.356;10.100;2023-04-06T01:47:25;101770.56;;;0.03;75.23
58843;BME280;44614;54.356;10.100;2023-04-06T01:49:50;101721.78;;;-0.26;75.49
58843;BME280;44614;54.356;10.100;2023-04-06T01:52:16;101774.41;;;0.01;75.51
58843;BME280;44614;54.356;10.100;2023-04-06T01:54:41;101749.03;;;-0.08;75.54
58843;BME280;44614;54.356;10.100;2023-04-06T01:57:06;101751.03;;;-0.10;75.97
58843;BME280;44614;54.356;10.100;2023-04-06T01:59:32;101760.13;;;-0.11;76.01
58843;BME280;44614;54.356;10.100;2023-04-06T02:01:57;101762.06;;;-0.13;76.26
58843;BME280;44614;54.356;10.100;2023-04-06T02:04:22;101760.38;;;-0.14;76.41
58843;BME280;44614;54.356;10.100;2023-04-06T02:06:48;101755.94;;;-0.15;76.61
58843;BME280;44614;54.356;10.100;2023-04-06T02:09:14;101760.63;;;-0.17;76.60
58843;BME280;44614;54.356;10.100;2023-04-06T02:11:39;101758.94;;;-0.18;76.43
58843;BME280;44614;54.356;10.100;2023-04-06T02:14:05;101741.59;;;-0.37;77.15
58843;BME280;44614;54.356;10.100;2023-04-06T02:16:30;101762.88;;;-0.22;77.05
58843;BME280;44614;54.356;10.100;2023-04-06T02:18:56;101727.75;;;-0.43;76.84
58843;BME280;44614;54.356;10.100;2023-04-06T02:21:24;101761.53;;;-0.28;77.22
58843;BME280;44614;54.356;10.100;2023-04-06T02:23:49;101760.53;;;-0.27;77.23
58843;BME280;44614;54.356;10.100;2023-04-06T02:26:15;101758.84;;;-0.28;77.42
58843;BME280;44614;54.356;10.100;2023-04-06T02:28:41;101764.38;;;-0.30;77.31
58843;BME280;44614;54.356;10.100;2023-04-06T02:31:07;101751.38;;;-0.36;77.60
58843;BME280;44614;54.356;10.100;2023-04-06T02:33:32;101760.59;;;-0.38;78.14
58843;BME280;44614;54.356;10.100;2023-04-06T02:35:57;101751.44;;;-0.47;78.52
58843;BME280;44614;54.356;10.100;2023-04-06T02:38:22;101745.34;;;-0.49;78.95
58843;BME280;44614;54.356;10.100;2023-04-06T02:40:48;101761.97;;;-0.44;78.61
58843;BME280;44614;54.356;10.100;2023-04-06T02:43:13;101752.88;;;-0.43;78.60
58843;BME280;44614;54.356;10.100;2023-04-06T02:45:40;101755.84;;;-0.46;78.31
58843;BME280;44614;54.356;10.100;2023-04-06T02:48:05;101750.44;;;-0.46;78.17
58843;BME280;44614;54.356;10.100;2023-04-06T02:50:31;101732.00;;;-0.62;77.75
58843;BME280;44614;54.356;10.100;2023-04-06T02:52:56;101726.34;;;-0.59;77.88
58843;BME280;44614;54.356;10.100;2023-04-06T02:55:21;101754.13;;;-0.47;78.08
58843;BME280;44614;54.356;10.100;2023-04-06T02:57:47;101747.44;;;-0.53;78.24
58843;BME280;44614;54.356;10.100;2023-04-06T03:00:12;101759.31;;;-0.55;77.68
58843;BME280;44614;54.356;10.100;2023-04-06T03:02:38;101741.69;;;-0.59;78.21
58843;BME280;44614;54.356;10.100;2023-04-06T03:05:04;101741.28;;;-0.55;78.26
58843;BME280;44614;54.356;10.100;2023-04-06T03:07:29;101740.84;;;-0.60;78.15
58843;BME280;44614;54.356;10.100;2023-04-06T03:09:55;101720.53;;;-0.75;78.01
58843;BME280;44614;54.356;10.100;2023-04-06T03:12:20;101737.53;;;-0.63;78.18
58843;BME280;44614;54.356;10.100;2023-04-06T03:14:46;101748.06;;;-0.60;78.11
58843;BME280;44614;54.356;10.100;2023-04-06T03:17:11;101742.19;;;-0.65;78.07
58843;BME280;44614;54.356;10.100;2023-04-06T03:19:36;101769.06;;;-0.64;78.08
58843;BME280;44614;54.356;10.100;2023-04-06T03:22:02;101753.97;;;-0.66;78.28
58843;BME280;44614;54.356;10.100;2023-04-06T03:24:27;101747.97;;;-0.70;78.12
58843;BME280;44614;54.356;10.100;2023-04-06T03:26:53;101769.56;;;-0.70;78.08
58843;BME280;44614;54.356;10.100;2023-04-06T03:29:18;101768.09;;;-0.74;78.50
58843;BME280;44614;54.356;10.100;2023-04-06T03:31:44;101756.94;;;-0.81;78.74
58843;BME280;44614;54.356;10.100;2023-04-06T03:34:09;101727.84;;;-0.98;78.49
58843;BME280;44614;54.356;10.100;2023-04-06T03:36:35;101741.41;;;-0.88;78.47
58843;BME280;44614;54.356;10.100;2023-04-06T03:39:00;101747.41;;;-0.85;78.92
58843;BME280;44614;54.356;10.100;2023-04-06T03:41:26;101752.69;;;-0.83;79.00
58843;BME280;44614;54.356;10.100;2023-04-06T03:43:52;101752.94;;;-0.86;78.99
58843;BME280;44614;54.356;10.100;2023-04-06T03:46:17;101760.88;;;-0.85;78.97
58843;BME280;44614;54.356;10.100;2023-04-06T03:48:43;101762.63;;;-0.84;78.95
58843;BME280;44614;54.356;10.100;2023-04-06T03:51:08;101759.94;;;-0.84;78.76
58843;BME280;44614;54.356;10.100;2023-04-06T03:53:34;101766.28;;;-0.85;78.61
58843;BME280;44614;54.356;10.100;2023-04-06T03:55:59;101762.88;;;-0.87;78.58
58843;BME280;44614;54.356;10.100;2023-04-06T03:58:24;101730.56;;;-1.09;78.27
58843;BME280;44614;54.356;10.100;2023-04-06T04:00:50;101756.88;;;-0.90;78.48
58843;BME280;44614;54.356;10.100;2023-04-06T04:03:15;101761.66;;;-0.94;78.94
58843;BME280;44614;54.356;10.100;2023-04-06T04:05:42;101746.97;;;-1.12;79.00
58843;BME280;44614;54.356;10.100;2023-04-06T04:08:08;101755.28;;;-1.04;79.22
58843;BME280;44614;54.356;10.100;2023-04-06T04:10:33;101764.84;;;-1.00;79.26
58843;BME280;44614;54.356;10.100;2023-04-06T04:12:58;101772.94;;;-1.00;79.65
58843;BME280;44614;54.356;10.100;2023-04-06T04:15:24;101765.97;;;-1.03;79.84
58843;BME280;44614;54.356;10.100;2023-04-06T04:17:49;101765.09;;;-1.03;79.73
58843;BME280;44614;54.356;10.100;2023-04-06T04:20:16;101766.94;;;-1.04;79.46
58843;BME280;44614;54.356;10.100;2023-04-06T04:22:41;101760.69;;;-1.04;79.28
58843;BME280;44614;54.356;10.100;2023-04-06T04:25:07;101730.22;;;-1.27;79.49
58843;BME280;44614;54.356;10.100;2023-04-06T04:27:33;101766.69;;;-1.12;80.17
58843;BME280;44614;54.356;10.100;2023-04-06T04:29:58;101759.00;;;-1.16;80.21
58843;BME280;44614;54.356;10.100;2023-04-06T04:32:24;101763.38;;;-1.15;80.36
58843;BME280;44614;54.356;10.100;2023-04-06T04:34:52;101774.06;;;-1.14;80.07
58843;BME280;44614;54.356;10.100;2023-04-06T04:37:18;101762.28;;;-1.13;79.77
58843;BME280;44614;54.356;10.100;2023-04-06T04:39:45;101783.00;;;-1.13;79.88
58843;BME280;44614;54.356;10.100;2023-04-06T04:42:10;101765.13;;;-1.14;79.75
58843;BME280;44614;54.356;10.100;2023-04-06T04:44:36;101751.53;;;-1.24;79.61
58843;BME280;44614;54.356;10.100;2023-04-06T04:47:01;101748.22;;;-1.28;79.79
58843;BME280;44614;54.356;10.100;2023-04-06T04:49:27;101760.22;;;-1.20;79.92
58843;BME280;44614;54.356;10.100;2023-04-06T04:51:52;101763.63;;;-1.18;80.07
58843;BME280;44614;54.356;10.100;2023-04-06T04:54:18;101763.78;;;-1.20;80.25
58843;BME280;44614;54.356;10.100;2023-04-06T04:56:44;101758.75;;;-1.25;80.32
58843;BME280;44614;54.356;10.100;2023-04-06T04:59:10;101759.22;;;-1.19;80.39
58843;BME280;44614;54.356;10.100;2023-04-06T05:01:35;101771.00;;;-1.20;80.43
58843;BME280;44614;54.356;10.100;2023-04-06T05:04:01;101769.28;;;-1.21;80.68
58843;BME280;44614;54.356;10.100;2023-04-06T05:06:26;101766.59;;;-1.21;80.88
58843;BME280;44614;54.356;10.100;2023-04-06T05:08:52;101743.31;;;-1.34;80.91
58843;BME280;44614;54.356;10.100;2023-04-06T05:11:17;101765.00;;;-1.24;81.13
58843;BME280;44614;54.356;10.100;2023-04-06T05:13:42;101752.38;;;-1.35;81.44
58843;BME280;44614;54.356;10.100;2023-04-06T05:16:08;101764.00;;;-1.23;81.21
58843;BME280;44614;54.356;10.100;2023-04-06T05:18:33;101753.38;;;-1.25;80.98
58843;BME280;44614;54.356;10.100;2023-04-06T05:20:59;101764.38;;;-1.16;80.74
58843;BME280;44614;54.356;10.100;2023-04-06T05:23:24;101768.78;;;-1.15;81.00
58843;BME280;44614;54.356;10.100;2023-04-06T05:25:50;101752.84;;;-1.18;81.14
58843;BME280;44614;54.356;10.100;2023-04-06T05:28:16;101747.22;;;-1.15;81.03
58843;BME280;44614;54.356;10.100;2023-04-06T05:30:43;101758.59;;;-1.12;81.10
58843;BME280;44614;54.356;10.100;2023-04-06T05:33:10;101758.97;;;-1.05;81.01
58843;BME280;44614;54.356;10.100;2023-04-06T05:35:35;101752.72;;;-1.06;81.03
58843;BME280;44614;54.356;10.100;2023-04-06T05:38:01;101760.19;;;-0.98;81.29
58843;BME280;44614;54.356;10.100;2023-04-06T05:40:26;101756.41;;;-1.07;81.38
58843;BME280;44614;54.356;10.100;2023-04-06T05:42:52;101762.50;;;-0.93;81.51
58843;BME280;44614;54.356;10.100;2023-04-06T05:45:17;101767.50;;;-0.89;81.67
58843;BME280;44614;54.356;10.100;2023-04-06T05:47:44;101769.72;;;-0.83;82.04
58843;BME280;44614;54.356;10.100;2023-04-06T05:50:15;101754.75;;;-0.76;82.47
58843;BME280;44614;54.356;10.100;2023-04-06T05:52:40;101692.56;;;-1.06;83.08
58843;BME280;44614;54.356;10.100;2023-04-06T05:55:08;101770.59;;;-0.50;83.17
58843;BME280;44614;54.356;10.100;2023-04-06T05:57:34;101765.44;;;-0.42;83.19
58843;BME280;44614;54.356;10.100;2023-04-06T06:00:00;101763.28;;;-0.38;83.82
58843;BME280;44614;54.356;10.100;2023-04-06T06:02:25;101771.34;;;-0.27;83.85
58843;BME280;44614;54.356;10.100;2023-04-06T06:04:51;101758.06;;;-0.19;84.11
58843;BME280;44614;54.356;10.100;2023-04-06T06:07:17;101772.81;;;-0.02;84.15
58843;BME280;44614;54.356;10.100;2023-04-06T06:09:42;101763.72;;;-0.01;84.00
58843;BME280;44614;54.356;10.100;2023-04-06T06:12:07;101762.75;;;0.00;83.94
58843;BME280;44614;54.356;10.100;2023-04-06T06:14:33;101762.94;;;0.08;83.83
58843;BME280;44614;54.356;10.100;2023-04-06T06:16:59;101745.41;;;0.03;83.79
58843;BME280;44614;54.356;10.100;2023-04-06T06:19:25;101769.72;;;0.23;83.39
58843;BME280;44614;54.356;10.100;2023-04-06T06:21:50;101738.69;;;0.18;83.29
58843;BME280;44614;54.356;10.100;2023-04-06T06:24:16;101777.00;;;0.54;83.18
58843;BME280;44614;54.356;10.100;2023-04-06T06:26:41;101779.63;;;0.75;83.22
58843;BME280;44614;54.356;10.100;2023-04-06T06:29:08;101753.22;;;0.88;83.30
58843;BME280;44614;54.356;10.100;2023-04-06T06:31:33;101769.41;;;1.28;83.23
58843;BME280;44614;54.356;10.100;2023-04-06T06:33:59;101771.56;;;1.54;82.29
58843;BME280;44614;54.356;10.100;2023-04-06T06:36:25;101736.50;;;1.62;81.68
58843;BME280;44614;54.356;10.100;2023-04-06T06:38:50;101770.97;;;2.08;81.08
58843;BME280;44614;54.356;10.100;2023-04-06T06:41:17;101768.66;;;2.33;80.39
58843;BME280;44614;54.356;10.100;2023-04-06T06:43:42;101757.41;;;2.55;79.14
58843;BME280;44614;54.356;10.100;2023-04-06T06:46:07;101760.97;;;2.65;78.13
58843;BME280;44614;54.356;10.100;2023-04-06T06:48:33;101759.38;;;2.63;78.02
58843;BME280;44614;54.356;10.100;2023-04-06T06:50:58;101771.91;;;2.74;77.98
58843;BME280;44614;54.356;10.100;2023-04-06T06:53:24;101763.19;;;2.80;77.50
58843;BME280;44614;54.356;10.100;2023-04-06T06:55:49;101764.88;;;2.81;77.36
58843;BME280;44614;54.356;10.100;2023-04-06T06:58:18;101761.44;;;2.88;77.46
58843;BME280;44614;54.356;10.100;2023-04-06T07:00:46;101755.00;;;2.89;77.00
58843;BME280;44614;54.356;10.100;2023-04-06T07:03:12;101772.34;;;3.06;77.09
58843;BME280;44614;54.356;10.100;2023-04-06T07:05:37;101750.00;;;3.12;76.87
58843;BME280;44614;54.356;10.100;2023-04-06T07:08:03;101766.56;;;3.55;76.27
58843;BME280;44614;54.356;10.100;2023-04-06T07:10:29;101732.53;;;3.60;76.08
58843;BME280;44614;54.356;10.100;2023-04-06T07:12:54;101764.47;;;4.02;74.67
58843;BME280;44614;54.356;10.100;2023-04-06T07:15:20;101753.56;;;4.20;73.38
58843;BME280;44614;54.356;10.100;2023-04-06T07:17:46;101766.28;;;4.46;72.80
58843;BME280;44614;54.356;10.100;2023-04-06T07:20:12;101749.19;;;4.61;72.55
58843;BME280;44614;54.356;10.100;2023-04-06T07:22:39;101761.25;;;4.85;71.21
58843;BME280;44614;54.356;10.100;2023-04-06T07:25:04;101763.72;;;5.04;71.16
58843;BME280;44614;54.356;10.100;2023-04-06T07:27:30;101754.56;;;5.22;70.89
58843;BME280;44614;54.356;10.100;2023-04-06T07:29:56;101759.69;;;5.33;69.33
58843;BME280;44614;54.356;10.100;2023-04-06T07:32:21;101760.41;;;5.43;67.86
58843;BME280;44614;54.356;10.100;2023-04-06T07:34:46;101730.97;;;5.38;67.54
58843;BME280;44614;54.356;10.100;2023-04-06T07:37:12;101750.38;;;5.60;67.79
58843;BME280;44614;54.356;10.100;2023-04-06T07:39:37;101739.66;;;5.75;67.72
58843;BME280;44614;54.356;10.100;2023-04-06T07:42:03;101730.47;;;5.76;67.05
58843;BME280;44614;54.356;10.100;2023-04-06T07:44:28;101746.88;;;6.00;67.80
58843;BME280;44614;54.356;10.100;2023-04-06T07:46:53;101735.63;;;6.12;66.72
58843;BME280;44614;54.356;10.100;2023-04-06T07:49:19;101746.16;;;6.23;66.76
58843;BME280;44614;54.356;10.100;2023-04-06T07:51:46;101730.47;;;6.25;66.28
58843;BME280;44614;54.356;10.100;2023-04-06T07:54:11;101721.59;;;6.31;65.47
58843;BME280;44614;54.356;10.100;2023-04-06T07:56:36;101732.78;;;6.52;65.42
58843;BME280;44614;54.356;10.100;2023-04-06T07:59:02;101733.63;;;6.61;65.42
58843;BME280;44614;54.356;10.100;2023-04-06T08:01:28;101741.56;;;6.79;63.40
58843;BME280;44614;54.356;10.100;2023-04-06T08:03:54;101737.81;;;6.88;63.65
58843;BME280;44614;54.356;10.100;2023-04-06T08:06:21;101741.19;;;6.98;64.26
58843;BME280;44614;54.356;10.100;2023-04-06T08:08:46;101728.53;;;6.97;64.29
58843;BME280;44614;54.356;10.100;2023-04-06T08:11:11;101737.81;;;7.19;62.31
58843;BME280;44614;54.356;10.100;2023-04-06T08:13:37;101736.13;;;7.18;62.64
58843;BME280;44614;54.356;10.100;2023-04-06T08:16:02;101739.66;;;7.27;63.06
58843;BME280;44614;54.356;10.100;2023-04-06T08:18:28;101726.69;;;7.29;61.81
58843;BME280;44614;54.356;10.100;2023-04-06T08:20:55;101714.72;;;7.30;62.42
58843;BME280;44614;54.356;10.100;2023-04-06T08:23:21;101679.75;;;7.17;62.13
58843;BME280;44614;54.356;10.100;2023-04-06T08:25:46;101743.59;;;7.55;61.06
58843;BME280;44614;54.356;10.100;2023-04-06T08:28:12;101720.84;;;7.55;60.34
58843;BME280;44614;54.356;10.100;2023-04-06T08:30:40;101721.59;;;7.72;61.17
58843;BME280;44614;54.356;10.100;2023-04-06T08:33:05;101720.34;;;7.74;60.17
58843;BME280;44614;54.356;10.100;2023-04-06T08:35:31;101726.44;;;7.85;60.10
58843;BME280;44614;54.356;10.100;2023-04-06T08:37:56;101732.78;;;8.00;59.69
58843;BME280;44614;54.356;10.100;2023-04-06T08:40:22;101720.56;;;8.11;59.94
58843;BME280;44614;54.356;10.100;2023-04-06T08:42:54;101727.97;;;8.25;56.09
58843;BME280;44614;54.356;10.100;2023-04-06T08:45:20;101739.38;;;8.28;55.71
58843;BME280;44614;54.356;10.100;2023-04-06T08:47:56;101743.41;;;8.18;54.55
58843;BME280;44614;54.356;10.100;2023-04-06T08:50:23;101736.63;;;8.14;50.93
58843;BME280;44614;54.356;10.100;2023-04-06T08:52:49;101727.25;;;8.08;54.87
58843;BME280;44614;54.356;10.100;2023-04-06T08:55:15;101739.63;;;8.19;55.00
58843;BME280;44614;54.356;10.100;2023-04-06T08:57:42;101729.75;;;8.18;54.41
58843;BME280;44614;54.356;10.100;2023-04-06T09:00:10;101732.47;;;8.18;55.22
58843;BME280;44614;54.356;10.100;2023-04-06T09:02:39;101712.28;;;8.19;56.23
58843;BME280;44614;54.356;10.100;2023-04-06T09:05:07;101723.28;;;8.48;55.99
58843;BME280;44614;54.356;10.100;2023-04-06T09:07:33;101732.75;;;8.61;52.50
58843;BME280;44614;54.356;10.100;2023-04-06T09:09:58;101731.69;;;8.62;53.46
58843;BME280;44614;54.356;10.100;2023-04-06T09:12:25;101714.63;;;8.60;54.23
58843;BME280;44614;54.356;10.100;2023-04-06T09:14:51;101718.94;;;8.69;52.02
58843;BME280;44614;54.356;10.100;2023-04-06T09:17:25;101711.19;;;8.58;51.58
58843;BME280;44614;54.356;10.100;2023-04-06T09:19:50;101701.50;;;8.55;50.45
58843;BME280;44614;54.356;10.100;2023-04-06T09:22:16;101702.34;;;8.56;51.04
58843;BME280;44614;54.356;10.100;2023-04-06T09:24:47;101713.38;;;8.62;49.43
58843;BME280;44614;54.356;10.100;2023-04-06T09:27:13;101715.72;;;8.80;52.97
58843;BME280;44614;54.356;10.100;2023-04-06T09:29:40;101698.66;;;8.78;50.38
58843;BME280;44614;54.356;10.100;2023-04-06T09:32:06;101710.34;;;8.87;51.62
58843;BME280;44614;54.356;10.100;2023-04-06T09:34:33;101707.13;;;8.98;51.48
58843;BME280;44614;54.356;10.100;2023-04-06T09:36:58;101706.88;;;9.14;51.73
58843;BME280;44614;54.356;10.100;2023-04-06T09:39:24;101678.66;;;9.14;52.23
58843;BME280;44614;54.356;10.100;2023-04-06T09:41:52;101703.72;;;9.32;48.46
58843;BME280;44614;54.356;10.100;2023-04-06T09:44:18;101700.91;;;9.25;48.86
58843;BME280;44614;54.356;10.100;2023-04-06T09:46:45;101695.16;;;9.20;42.29
58843;BME280;44614;54.356;10.100;2023-04-06T09:49:11;101696.94;;;9.28;48.19
58843;BME280;44614;54.356;10.100;2023-04-06T09:51:39;101686.03;;;9.35;50.19
58843;BME280;44614;54.356;10.100;2023-04-06T09:54:06;101654.78;;;9.29;49.91
58843;BME280;44614;54.356;10.100;2023-04-06T09:59:13;101687.56;;;9.59;48.17
58843;BME280;44614;54.356;10.100;2023-04-06T10:01:41;101685.00;;;9.57;48.75
58843;BME280;44614;54.356;10.100;2023-04-06T10:04:19;101688.19;;;9.61;48.34
58843;BME280;44614;54.356;10.100;2023-04-06T10:06:47;101694.88;;;9.51;43.78
58843;BME280;44614;54.356;10.100;2023-04-06T10:09:18;101684.66;;;9.45;47.84
58843;BME280;44614;54.356;10.100;2023-04-06T10:11:47;101688.94;;;9.48;46.61
58843;BME280;44614;54.356;10.100;2023-04-06T10:14:14;101679.94;;;9.54;46.92
58843;BME280;44614;54.356;10.100;2023-04-06T10:16:40;101686.13;;;9.63;45.96
58843;BME280;44614;54.356;10.100;2023-04-06T10:19:10;101679.78;;;9.62;48.17
58843;BME280;44614;54.356;10.100;2023-04-06T10:21:39;101695.91;;;9.72;48.29
58843;BME280;44614;54.356;10.100;2023-04-06T10:24:06;101686.75;;;9.65;41.77
58843;BME280;44614;54.356;10.100;2023-04-06T10:26:35;101690.56;;;9.85;48.38
58843;BME280;44614;54.356;10.100;2023-04-06T10:29:05;101670.19;;;10.01;48.81
58843;BME280;44614;54.356;10.100;2023-04-06T10:31:30;101672.03;;;9.94;47.14
58843;BME280;44614;54.356;10.100;2023-04-06T10:36:24;101682.94;;;10.09;47.71
58843;BME280;44614;54.356;10.100;2023-04-06T10:38:55;101664.22;;;10.19;49.05
58843;BME280;44614;54.356;10.100;2023-04-06T10:41:21;101665.66;;;10.15;47.40
58843;BME280;44614;54.356;10.100;2023-04-06T10:43:55;101659.75;;;10.18;46.23
58843;BME280;44614;54.356;10.100;2023-04-06T10:46:25;101669.38;;;10.07;46.19
58843;BME280;44614;54.356;10.100;2023-04-06T10:48:51;101645.69;;;9.99;44.80
58843;BME280;44614;54.356;10.100;2023-04-06T10:51:17;101650.84;;;10.09;46.52
58843;BME280;44614;54.356;10.100;2023-04-06T10:53:47;101668.03;;;10.24;45.98
58843;BME280;44614;54.356;10.100;2023-04-06T10:56:18;101673.31;;;10.19;39.24
58843;BME280;44614;54.356;10.100;2023-04-06T10:58:50;101664.63;;;10.16;45.05
58843;BME280;44614;54.356;10.100;2023-04-06T11:01:17;101667.38;;;10.16;43.20
58843;BME280;44614;54.356;10.100;2023-04-06T11:03:44;101664.63;;;10.16;45.28
58843;BME280;44614;54.356;10.100;2023-04-06T11:06:10;101662.94;;;10.21;46.28
58843;BME280;44614;54.356;10.100;2023-04-06T11:08:35;101655.25;;;10.32;45.34
58843;BME280;44614;54.356;10.100;2023-04-06T11:11:12;101654.72;;;10.49;44.14
58843;BME280;44614;54.356;10.100;2023-04-06T11:16:16;101654.59;;;10.71;46.34
58843;BME280;44614;54.356;10.100;2023-04-06T11:24:20;101646.94;;;10.60;41.42
58843;BME280;44614;54.356;10.100;2023-04-06T11:29:36;101644.28;;;10.73;45.11
58843;BME280;44614;54.356;10.100;2023-04-06T11:32:06;101648.41;;;10.56;42.23
58843;BME280;44614;54.356;10.100;2023-04-06T11:34:37;101628.19;;;10.29;38.72
58843;BME280;44614;54.356;10.100;2023-04-06T11:37:07;101653.66;;;10.22;38.50
58843;BME280;44614;54.356;10.100;2023-04-06T11:39:38;101637.34;;;10.14;43.80
58843;BME280;44614;54.356;10.100;2023-04-06T11:42:04;101638.78;;;10.32;44.49
58843;BME280;44614;54.356;10.100;2023-04-06T11:44:43;101648.91;;;10.31;42.02
58843;BME280;44614;54.356;10.100;2023-04-06T11:47:11;101636.66;;;10.27;43.42
58843;BME280;44614;54.356;10.100;2023-04-06T11:49:39;101643.41;;;10.31;42.86
58843;BME280;44614;54.356;10.100;2023-04-06T11:52:22;101620.94;;;10.21;43.92
58843;BME280;44614;54.356;10.100;2023-04-06T11:54:49;101636.53;;;10.42;44.54
58843;BME280;44614;54.356;10.100;2023-04-06T11:57:17;101634.09;;;10.67;42.92
58843;BME280;44614;54.356;10.100;2023-04-06T11:59:43;101622.47;;;10.65;40.50
58843;BME280;44614;54.356;10.100;2023-04-06T12:02:09;101633.03;;;10.68;44.40
58843;BME280;44614;54.356;10.100;2023-04-06T12:04:34;101634.31;;;10.72;42.54
58843;BME280;44614;54.356;10.100;2023-04-06T12:07:00;101645.78;;;10.82;42.81
58843;BME280;44614;54.356;10.100;2023-04-06T12:09:26;101631.81;;;10.77;43.79
58843;BME280;44614;54.356;10.100;2023-04-06T12:11:51;101621.22;;;10.67;42.05
58843;BME280;44614;54.356;10.100;2023-04-06T12:14:17;101628.50;;;10.88;43.84
58843;BME280;44614;54.356;10.100;2023-04-06T12:16:42;101629.41;;;11.15;43.54
58843;BME280;44614;54.356;10.100;2023-04-06T12:19:08;101633.06;;;11.42;43.73
58843;BME280;44614;54.356;10.100;2023-04-06T12:21:34;101622.28;;;11.61;41.84
58843;BME280;44614;54.356;10.100;2023-04-06T12:24:02;101609.78;;;11.52;39.64
58843;BME280;44614;54.356;10.100;2023-04-06T12:26:30;101628.84;;;11.73;40.76
58843;BME280;44614;54.356;10.100;2023-04-06T12:28:55;101619.13;;;12.04;44.00
58843;BME280;44614;54.356;10.100;2023-04-06T12:31:22;101631.28;;;12.48;42.39
58843;BME280;44614;54.356;10.100;2023-04-06T12:33:51;101597.88;;;12.31;42.14
58843;BME280;44614;54.356;10.100;2023-04-06T12:36:19;101622.22;;;12.92;42.71
58843;BME280;44614;54.356;10.100;2023-04-06T12:38:47;101617.78;;;12.91;42.59
58843;BME280;44614;54.356;10.100;2023-04-06T12:41:12;101603.31;;;13.02;42.93
58843;BME280;44614;54.356;10.100;2023-04-06T12:43:42;101600.78;;;13.64;43.27
58843;BME280;44614;54.356;10.100;2023-04-06T12:46:07;101603.00;;;13.99;38.75
58843;BME280;44614;54.356;10.100;2023-04-06T12:48:33;101607.63;;;14.05;39.48
58843;BME280;44614;54.356;10.100;2023-04-06T12:51:00;101600.34;;;14.10;41.74
58843;BME280;44614;54.356;10.100;2023-04-06T12:53:26;101595.75;;;14.41;41.77
58843;BME280;44614;54.356;10.100;2023-04-06T12:55:56;101597.84;;;14.64;38.23